sensor_id;sensor_type;location;lat;lon;timestamp;temperature;humidity
23609;DHT22;11982;50.810;4.442;2023-07-22T00:01:53;13.10;99.90
23609;DHT22;11982;50.810;4.442;2023-07-22T00:04:19;13.10;99.90
23609;DHT22;11982;50.810;4.442;2023-07-22T00:06:44;13.10;99.90
23609;DHT22;11982;50.810;4.442;2023-07-22T00:09:10;13.10;99.90
23609;DHT22;11982;50.810;4.442;2023-07-22T00:11:36;13.10;99.90
23609;DHT22;11982;50.810;4.442;2023-07-22T00:14:01;13.20;99.90
23609;DHT22;11982;50.810;4.442;2023-07-22T00:16:27;13.20;99.90
23609;DHT22;11982;50.810;4.442;2023-07-22T00:18:55;13.10;99.90
23609;DHT22;11982;50.810;4.442;2023-07-22T00:21:20;13.10;99.90
23609;DHT22;11982;50.810;4.442;2023-07-22T00:23:46;13.00;99.90
23609;DHT22;11982;50.810;4.442;2023-07-22T00:26:12;13.10;99.90
23609;DHT22;11982;50.810;4.442;2023-07-22T00:28:37;13.10;99.90
23609;DHT22;11982;50.810;4.442;2023-07-22T00:31:03;12.90;99.90
23609;DHT22;11982;50.810;4.442;2023-07-22T00:33:29;13.00;99.90
23609;DHT22;11982;50.810;4.442;2023-07-22T00:35:55;12.90;99.90
23609;DHT22;11982;50.810;4.442;2023-07-22T00:38:21;12.90;99.90
23609;DHT22;11982;50.810;4.442;2023-07-22T00:40:47;12.80;99.90
23609;DHT22;11982;50.810;4.442;2023-07-22T00:43:13;12.90;99.90
23609;DHT22;11982;50.810;4.442;2023-07-22T00:45:38;12.90;99.90
23609;DHT22;11982;50.810;4.442;2023-07-22T00:48:05;12.70;99.90
23609;DHT22;11982;50.810;4.442;2023-07-22T00:50:33;12.80;99.90
23609;DHT22;11982;50.810;4.442;2023-07-22T00:52:59;12.80;99.90
23609;DHT22;11982;50.810;4.442;2023-07-22T00:55:25;12.80;99.90
23609;DHT22;11982;50.810;4.442;2023-07-22T00:57:51;12.80;99.90
23609;DHT22;11982;50.810;4.442;2023-07-22T01:00:17;12.80;99.90
23609;DHT22;11982;50.810;4.442;2023-07-22T01:02:43;12.70;99.90
23609;DHT22;11982;50.810;4.442;2023-07-22T01:05:10;12.80;99.90
23609;DHT22;11982;50.810;4.442;2023-07-22T01:07:37;12.70;99.90
23609;DHT22;11982;50.810;4.442;2023-07-22T01:10:04;12.70;99.90
23609;DHT22;11982;50.810;4.442;2023-07-22T01:12:31;12.80;99.90
23609;DHT22;11982;50.810;4.442;2023-07-22T01:14:57;12.80;99.90
23609;DHT22;11982;50.810;4.442;2023-07-22T01:17:23;12.90;99.90
23609;DHT22;11982;50.810;4.442;2023-07-22T01:19:49;12.90;99.90
23609;DHT22;11982;50.810;4.442;2023-07-22T01:22:16;12.70;99.90
23609;DHT22;11982;50.810;4.442;2023-07-22T01:24:42;12.60;99.90
23609;DHT22;11982;50.810;4.442;2023-07-22T01:27:08;12.50;99.90
23609;DHT22;11982;50.810;4.442;2023-07-22T01:29:35;12.50;99.90
23609;DHT22;11982;50.810;4.442;2023-07-22T01:32:02;12.40;99.90
23609;DHT22;11982;50.810;4.442;2023-07-22T01:34:27;12.40;99.90
23609;DHT22;11982;50.810;4.442;2023-07-22T01:36:53;12.50;99.90
23609;DHT22;11982;50.810;4.442;2023-07-22T01:39:19;12.50;99.90
23609;DHT22;11982;50.810;4.442;2023-07-22T01:41:45;12.50;99.90
23609;DHT22;11982;50.810;4.442;2023-07-22T01:44:11;12.50;99.90
23609;DHT22;11982;50.810;4.442;2023-07-22T01:46:37;12.60;99.90
23609;DHT22;11982;50.810;4.442;2023-07-22T01:49:10;12.60;99.90
23609;DHT22;11982;50.810;4.442;2023-07-22T01:51:36;12.50;99.90
23609;DHT22;11982;50.810;4.442;2023-07-22T01:54:06;12.50;99.90
23609;DHT22;11982;50.810;4.442;2023-07-22T01:56:32;12.50;99.90
23609;DHT22;11982;50.810;4.442;2023-07-22T01:58:58;12.50;99.90
23609;DHT22;11982;50.810;4.442;2023-07-22T02:01:23;12.70;99.90
23609;DHT22;11982;50.810;4.442;2023-07-22T02:03:49;12.70;99.90
23609;DHT22;11982;50.810;4.442;2023-07-22T02:06:15;12.70;99.90
23609;DHT22;11982;50.810;4.442;2023-07-22T02:08:41;12.80;99.90
23609;DHT22;11982;50.810;4.442;2023-07-22T02:11:08;12.70;99.90
23609;DHT22;11982;50.810;4.442;2023-07-22T02:13:36;12.60;99.90
23609;DHT22;11982;50.810;4.442;2023-07-22T02:16:02;12.60;99.90
23609;DHT22;11982;50.810;4.442;2023-07-22T02:18:29;12.60;99.90
23609;DHT22;11982;50.810;4.442;2023-07-22T02:20:56;12.70;99.90
23609;DHT22;11982;50.810;4.442;2023-07-22T02:23:22;12.60;99.90
23609;DHT22;11982;50.810;4.442;2023-07-22T02:25:52;12.60;99.90
23609;DHT22;11982;50.810;4.442;2023-07-22T02:28:19;12.50;99.90
23609;DHT22;11982;50.810;4.442;2023-07-22T02:30:47;12.40;99.90
23609;DHT22;11982;50.810;4.442;2023-07-22T02:33:13;12.40;99.90
23609;DHT22;11982;50.810;4.442;2023-07-22T02:35:41;12.50;99.90
23609;DHT22;11982;50.810;4.442;2023-07-22T02:38:07;12.70;99.90
23609;DHT22;11982;50.810;4.442;2023-07-22T02:40:39;12.80;99.90
23609;DHT22;11982;50.810;4.442;2023-07-22T02:43:05;12.70;99.90
23609;DHT22;11982;50.810;4.442;2023-07-22T02:45:33;12.70;99.90
23609;DHT22;11982;50.810;4.442;2023-07-22T02:47:58;12.70;99.90
23609;DHT22;11982;50.810;4.442;2023-07-22T02:50:25;12.70;99.90
23609;DHT22;11982;50.810;4.442;2023-07-22T02:52:51;12.60;99.90
23609;DHT22;11982;50.810;4.442;2023-07-22T02:55:17;12.60;99.90
23609;DHT22;11982;50.810;4.442;2023-07-22T02:57:47;12.60;99.90
23609;DHT22;11982;50.810;4.442;2023-07-22T03:00:15;12.50;99.90
23609;DHT22;11982;50.810;4.442;2023-07-22T03:02:54;12.50;99.90
23609;DHT22;11982;50.810;4.442;2023-07-22T03:05:27;12.40;99.90
23609;DHT22;11982;50.810;4.442;2023-07-22T03:07:53;12.30;99.90
23609;DHT22;11982;50.810;4.442;2023-07-22T03:10:19;12.30;99.90
23609;DHT22;11982;50.810;4.442;2023-07-22T03:12:45;12.40;99.90
23609;DHT22;11982;50.810;4.442;2023-07-22T03:15:10;12.30;99.90
23609;DHT22;11982;50.810;4.442;2023-07-22T03:17:39;12.40;99.90
23609;DHT22;11982;50.810;4.442;2023-07-22T03:20:05;12.20;99.90
23609;DHT22;11982;50.810;4.442;2023-07-22T03:22:39;12.20;99.90
23609;DHT22;11982;50.810;4.442;2023-07-22T03:25:05;12.20;99.90
23609;DHT22;11982;50.810;4.442;2023-07-22T03:27:33;12.20;99.90
23609;DHT22;11982;50.810;4.442;2023-07-22T03:29:59;12.20;99.90
23609;DHT22;11982;50.810;4.442;2023-07-22T03:32:25;12.20;99.90
23609;DHT22;11982;50.810;4.442;2023-07-22T03:34:50;12.40;99.90
23609;DHT22;11982;50.810;4.442;2023-07-22T03:37:16;12.40;99.90
23609;DHT22;11982;50.810;4.442;2023-07-22T03:39:42;12.30;99.90
23609;DHT22;11982;50.810;4.442;2023-07-22T03:42:07;12.40;99.90
23609;DHT22;11982;50.810;4.442;2023-07-22T03:44:33;12.50;99.90
23609;DHT22;11982;50.810;4.442;2023-07-22T03:46:59;12.40;99.90
23609;DHT22;11982;50.810;4.442;2023-07-22T03:49:25;12.30;99.90
23609;DHT22;11982;50.810;4.442;2023-07-22T03:51:51;12.40;99.90
23609;DHT22;11982;50.810;4.442;2023-07-22T03:54:16;12.40;99.90
23609;DHT22;11982;50.810;4.442;2023-07-22T03:56:42;12.40;99.90
23609;DHT22;11982;50.810;4.442;2023-07-22T03:59:07;12.40;99.90
23609;DHT22;11982;50.810;4.442;2023-07-22T04:01:33;12.30;99.90
23609;DHT22;11982;50.810;4.442;2023-07-22T04:03:59;12.40;99.90
23609;DHT22;11982;50.810;4.442;2023-07-22T04:06:24;12.40;99.90
23609;DHT22;11982;50.810;4.442;2023-07-22T04:08:51;12.40;99.90
23609;DHT22;11982;50.810;4.442;2023-07-22T04:11:16;12.50;99.90
23609;DHT22;11982;50.810;4.442;2023-07-22T04:13:42;12.50;99.90
23609;DHT22;11982;50.810;4.442;2023-07-22T04:16:08;12.50;99.90
23609;DHT22;11982;50.810;4.442;2023-07-22T04:18:33;12.60;99.90
23609;DHT22;11982;50.810;4.442;2023-07-22T04:21:00;12.50;99.90
23609;DHT22;11982;50.810;4.442;2023-07-22T04:23:26;12.50;99.90
23609;DHT22;11982;50.810;4.442;2023-07-22T04:25:52;12.70;99.90
23609;DHT22;11982;50.810;4.442;2023-07-22T04:28:17;12.70;99.90
23609;DHT22;11982;50.810;4.442;2023-07-22T04:30:53;12.80;99.90
23609;DHT22;11982;50.810;4.442;2023-07-22T04:33:19;12.80;99.90
23609;DHT22;11982;50.810;4.442;2023-07-22T04:35:45;12.80;99.90
23609;DHT22;11982;50.810;4.442;2023-07-22T04:38:10;12.90;99.90
23609;DHT22;11982;50.810;4.442;2023-07-22T04:40:36;12.90;99.90
23609;DHT22;11982;50.810;4.442;2023-07-22T04:43:02;13.10;99.90
23609;DHT22;11982;50.810;4.442;2023-07-22T04:45:28;13.10;99.90
23609;DHT22;11982;50.810;4.442;2023-07-22T04:47:54;13.20;99.90
23609;DHT22;11982;50.810;4.442;2023-07-22T04:50:20;13.30;99.90
23609;DHT22;11982;50.810;4.442;2023-07-22T04:52:47;13.40;99.90
23609;DHT22;11982;50.810;4.442;2023-07-22T04:55:13;13.40;99.90
23609;DHT22;11982;50.810;4.442;2023-07-22T04:57:40;13.40;99.90
23609;DHT22;11982;50.810;4.442;2023-07-22T05:00:14;13.40;99.90
23609;DHT22;11982;50.810;4.442;2023-07-22T05:02:45;13.40;99.90
23609;DHT22;11982;50.810;4.442;2023-07-22T05:05:15;13.40;99.90
23609;DHT22;11982;50.810;4.442;2023-07-22T05:07:40;13.40;99.90
23609;DHT22;11982;50.810;4.442;2023-07-22T05:10:09;13.40;99.90
23609;DHT22;11982;50.810;4.442;2023-07-22T05:12:43;13.40;99.90
23609;DHT22;11982;50.810;4.442;2023-07-22T05:15:11;13.40;99.90
23609;DHT22;11982;50.810;4.442;2023-07-22T05:17:37;13.40;99.90
23609;DHT22;11982;50.810;4.442;2023-07-22T05:20:03;13.40;99.90
23609;DHT22;11982;50.810;4.442;2023-07-22T05:22:32;13.40;99.90
23609;DHT22;11982;50.810;4.442;2023-07-22T05:24:58;13.40;99.90
23609;DHT22;11982;50.810;4.442;2023-07-22T05:27:25;13.40;99.90
23609;DHT22;11982;50.810;4.442;2023-07-22T05:29:50;13.40;99.90
23609;DHT22;11982;50.810;4.442;2023-07-22T05:32:16;13.50;99.90
23609;DHT22;11982;50.810;4.442;2023-07-22T05:34:42;13.60;99.90
23609;DHT22;11982;50.810;4.442;2023-07-22T05:37:07;13.70;99.90
23609;DHT22;11982;50.810;4.442;2023-07-22T05:39:33;13.90;99.90
23609;DHT22;11982;50.810;4.442;2023-07-22T05:41:59;14.00;99.90
23609;DHT22;11982;50.810;4.442;2023-07-22T05:44:24;14.20;99.90
23609;DHT22;11982;50.810;4.442;2023-07-22T05:46:50;14.40;99.90
23609;DHT22;11982;50.810;4.442;2023-07-22T05:49:16;14.40;99.90
23609;DHT22;11982;50.810;4.442;2023-07-22T05:51:41;14.50;99.90
23609;DHT22;11982;50.810;4.442;2023-07-22T05:54:07;14.60;99.90
23609;DHT22;11982;50.810;4.442;2023-07-22T05:56:33;14.70;99.90
23609;DHT22;11982;50.810;4.442;2023-07-22T05:58:58;14.80;99.90
23609;DHT22;11982;50.810;4.442;2023-07-22T06:01:24;14.90;99.90
23609;DHT22;11982;50.810;4.442;2023-07-22T06:03:50;15.10;99.90
23609;DHT22;11982;50.810;4.442;2023-07-22T06:06:16;15.40;99.90
23609;DHT22;11982;50.810;4.442;2023-07-22T06:08:42;15.30;99.90
23609;DHT22;11982;50.810;4.442;2023-07-22T06:11:07;15.30;99.90
23609;DHT22;11982;50.810;4.442;2023-07-22T06:13:33;15.30;99.90
23609;DHT22;11982;50.810;4.442;2023-07-22T06:15:59;15.20;99.90
23609;DHT22;11982;50.810;4.442;2023-07-22T06:18:24;15.30;99.90
23609;DHT22;11982;50.810;4.442;2023-07-22T06:20:51;15.30;99.90
23609;DHT22;11982;50.810;4.442;2023-07-22T06:23:16;15.40;99.90
23609;DHT22;11982;50.810;4.442;2023-07-22T06:25:42;15.50;99.90
23609;DHT22;11982;50.810;4.442;2023-07-22T06:28:08;15.50;99.90
23609;DHT22;11982;50.810;4.442;2023-07-22T06:30:34;15.70;99.90
23609;DHT22;11982;50.810;4.442;2023-07-22T06:33:00;15.70;99.90
23609;DHT22;11982;50.810;4.442;2023-07-22T06:35:26;15.70;99.90
23609;DHT22;11982;50.810;4.442;2023-07-22T06:37:51;15.80;99.90
23609;DHT22;11982;50.810;4.442;2023-07-22T06:40:17;15.80;99.90
23609;DHT22;11982;50.810;4.442;2023-07-22T06:42:43;15.80;99.90
23609;DHT22;11982;50.810;4.442;2023-07-22T06:45:09;15.80;99.90
23609;DHT22;11982;50.810;4.442;2023-07-22T06:47:36;15.80;99.90
23609;DHT22;11982;50.810;4.442;2023-07-22T06:50:03;15.90;99.90
23609;DHT22;11982;50.810;4.442;2023-07-22T06:52:33;16.00;99.90
23609;DHT22;11982;50.810;4.442;2023-07-22T06:54:59;16.30;99.90
23609;DHT22;11982;50.810;4.442;2023-07-22T06:57:24;16.20;99.90
23609;DHT22;11982;50.810;4.442;2023-07-22T06:59:56;16.20;99.90
23609;DHT22;11982;50.810;4.442;2023-07-22T07:02:22;16.40;99.90
23609;DHT22;11982;50.810;4.442;2023-07-22T07:04:48;16.30;99.90
23609;DHT22;11982;50.810;4.442;2023-07-22T07:07:14;16.40;99.90
23609;DHT22;11982;50.810;4.442;2023-07-22T07:09:40;16.30;99.90
23609;DHT22;11982;50.810;4.442;2023-07-22T07:12:06;16.60;99.90
23609;DHT22;11982;50.810;4.442;2023-07-22T07:14:33;16.60;99.90
23609;DHT22;11982;50.810;4.442;2023-07-22T07:16:59;16.60;99.90
23609;DHT22;11982;50.810;4.442;2023-07-22T07:19:26;16.60;99.90
23609;DHT22;11982;50.810;4.442;2023-07-22T07:21:52;16.50;99.90
23609;DHT22;11982;50.810;4.442;2023-07-22T07:24:17;16.60;99.90
23609;DHT22;11982;50.810;4.442;2023-07-22T07:26:43;16.60;99.90
23609;DHT22;11982;50.810;4.442;2023-07-22T07:29:09;16.70;99.90
23609;DHT22;11982;50.810;4.442;2023-07-22T07:31:34;16.90;99.90
23609;DHT22;11982;50.810;4.442;2023-07-22T07:34:00;17.00;99.90
23609;DHT22;11982;50.810;4.442;2023-07-22T07:36:26;17.10;99.90
23609;DHT22;11982;50.810;4.442;2023-07-22T07:38:52;17.10;99.90
23609;DHT22;11982;50.810;4.442;2023-07-22T07:41:18;17.20;99.90
23609;DHT22;11982;50.810;4.442;2023-07-22T07:43:44;17.40;99.90
23609;DHT22;11982;50.810;4.442;2023-07-22T07:46:13;17.50;99.90
23609;DHT22;11982;50.810;4.442;2023-07-22T07:48:39;17.50;99.90
23609;DHT22;11982;50.810;4.442;2023-07-22T07:51:05;17.70;99.90
23609;DHT22;11982;50.810;4.442;2023-07-22T07:53:31;17.70;99.90
23609;DHT22;11982;50.810;4.442;2023-07-22T07:55:57;17.70;99.90
23609;DHT22;11982;50.810;4.442;2023-07-22T07:58:22;17.80;99.90
23609;DHT22;11982;50.810;4.442;2023-07-22T08:00:48;17.80;99.90
23609;DHT22;11982;50.810;4.442;2023-07-22T08:03:14;17.70;99.90
23609;DHT22;11982;50.810;4.442;2023-07-22T08:05:39;17.90;99.90
23609;DHT22;11982;50.810;4.442;2023-07-22T08:08:05;18.10;99.90
23609;DHT22;11982;50.810;4.442;2023-07-22T08:10:31;18.30;99.90
23609;DHT22;11982;50.810;4.442;2023-07-22T08:12:56;18.30;99.90
23609;DHT22;11982;50.810;4.442;2023-07-22T08:15:22;18.40;99.90
23609;DHT22;11982;50.810;4.442;2023-07-22T08:17:48;18.20;99.90
23609;DHT22;11982;50.810;4.442;2023-07-22T08:20:13;18.10;99.90
23609;DHT22;11982;50.810;4.442;2023-07-22T08:22:39;18.10;99.90
23609;DHT22;11982;50.810;4.442;2023-07-22T08:25:05;18.20;99.90
23609;DHT22;11982;50.810;4.442;2023-07-22T08:27:31;18.30;99.90
23609;DHT22;11982;50.810;4.442;2023-07-22T08:29:56;18.30;99.90
23609;DHT22;11982;50.810;4.442;2023-07-22T08:32:22;18.40;99.90
23609;DHT22;11982;50.810;4.442;2023-07-22T08:34:48;18.20;99.90
23609;DHT22;11982;50.810;4.442;2023-07-22T08:37:13;18.40;99.90
23609;DHT22;11982;50.810;4.442;2023-07-22T08:39:39;18.30;99.90
23609;DHT22;11982;50.810;4.442;2023-07-22T08:42:06;18.60;99.90
23609;DHT22;11982;50.810;4.442;2023-07-22T08:44:33;18.90;99.90
23609;DHT22;11982;50.810;4.442;2023-07-22T08:47:02;18.90;99.90
23609;DHT22;11982;50.810;4.442;2023-07-22T08:49:32;18.90;99.90
23609;DHT22;11982;50.810;4.442;2023-07-22T08:51:59;18.80;99.90
23609;DHT22;11982;50.810;4.442;2023-07-22T08:54:26;18.40;99.90
23609;DHT22;11982;50.810;4.442;2023-07-22T08:56:53;18.50;99.90
23609;DHT22;11982;50.810;4.442;2023-07-22T08:59:19;18.60;99.90
23609;DHT22;11982;50.810;4.442;2023-07-22T09:01:47;19.00;99.90
23609;DHT22;11982;50.810;4.442;2023-07-22T09:04:13;19.10;99.90
23609;DHT22;11982;50.810;4.442;2023-07-22T09:06:39;19.30;99.90
23609;DHT22;11982;50.810;4.442;2023-07-22T09:09:07;19.30;99.90
23609;DHT22;11982;50.810;4.442;2023-07-22T09:11:34;19.40;99.90
23609;DHT22;11982;50.810;4.442;2023-07-22T09:14:02;19.40;99.90
23609;DHT22;11982;50.810;4.442;2023-07-22T09:16:30;19.40;99.90
23609;DHT22;11982;50.810;4.442;2023-07-22T09:19:00;19.40;99.90
23609;DHT22;11982;50.810;4.442;2023-07-22T09:21:26;19.60;99.90
23609;DHT22;11982;50.810;4.442;2023-07-22T09:23:53;19.90;99.90
23609;DHT22;11982;50.810;4.442;2023-07-22T09:26:19;19.90;99.90
23609;DHT22;11982;50.810;4.442;2023-07-22T09:31:19;19.60;99.90
23609;DHT22;11982;50.810;4.442;2023-07-22T09:33:45;19.60;99.90
23609;DHT22;11982;50.810;4.442;2023-07-22T09:36:11;19.80;99.90
23609;DHT22;11982;50.810;4.442;2023-07-22T09:38:37;19.60;99.90
23609;DHT22;11982;50.810;4.442;2023-07-22T09:41:03;19.60;99.90
23609;DHT22;11982;50.810;4.442;2023-07-22T09:43:30;19.70;99.90
23609;DHT22;11982;50.810;4.442;2023-07-22T09:45:56;19.70;99.90
23609;DHT22;11982;50.810;4.442;2023-07-22T09:48:32;19.80;99.90
23609;DHT22;11982;50.810;4.442;2023-07-22T09:51:04;19.60;99.90
23609;DHT22;11982;50.810;4.442;2023-07-22T09:53:30;19.60;99.90
23609;DHT22;11982;50.810;4.442;2023-07-22T09:56:03;19.40;99.90
23609;DHT22;11982;50.810;4.442;2023-07-22T09:58:30;19.30;99.90
23609;DHT22;11982;50.810;4.442;2023-07-22T10:00:57;19.50;99.90
23609;DHT22;11982;50.810;4.442;2023-07-22T10:03:28;19.70;99.90
23609;DHT22;11982;50.810;4.442;2023-07-22T10:05:54;19.60;99.90
23609;DHT22;11982;50.810;4.442;2023-07-22T10:08:21;19.50;99.90
23609;DHT22;11982;50.810;4.442;2023-07-22T10:10:51;19.70;99.90
23609;DHT22;11982;50.810;4.442;2023-07-22T10:13:19;19.90;99.90
23609;DHT22;11982;50.810;4.442;2023-07-22T10:15:45;19.90;99.90
23609;DHT22;11982;50.810;4.442;2023-07-22T10:18:11;20.00;99.90
23609;DHT22;11982;50.810;4.442;2023-07-22T10:20:38;19.90;99.90
23609;DHT22;11982;50.810;4.442;2023-07-22T10:23:06;19.80;99.90
23609;DHT22;11982;50.810;4.442;2023-07-22T10:25:34;19.90;99.90
23609;DHT22;11982;50.810;4.442;2023-07-22T10:28:00;20.30;99.90
23609;DHT22;11982;50.810;4.442;2023-07-22T10:30:26;20.40;99.90
23609;DHT22;11982;50.810;4.442;2023-07-22T10:32:53;20.40;99.90
23609;DHT22;11982;50.810;4.442;2023-07-22T10:40:49;21.30;99.90
23609;DHT22;11982;50.810;4.442;2023-07-22T10:43:16;21.20;99.90
23609;DHT22;11982;50.810;4.442;2023-07-22T10:45:53;21.20;99.90
23609;DHT22;11982;50.810;4.442;2023-07-22T10:48:19;21.40;99.90
23609;DHT22;11982;50.810;4.442;2023-07-22T10:50:50;21.40;99.90
23609;DHT22;11982;50.810;4.442;2023-07-22T10:58:56;21.50;99.90
23609;DHT22;11982;50.810;4.442;2023-07-22T11:04:25;21.50;99.90
23609;DHT22;11982;50.810;4.442;2023-07-22T11:06:58;21.70;99.90
23609;DHT22;11982;50.810;4.442;2023-07-22T11:11:54;21.70;99.90
23609;DHT22;11982;50.810;4.442;2023-07-22T11:14:23;21.90;99.90
23609;DHT22;11982;50.810;4.442;2023-07-22T11:16:49;21.90;99.90
23609;DHT22;11982;50.810;4.442;2023-07-22T11:19:16;21.90;99.90
23609;DHT22;11982;50.810;4.442;2023-07-22T11:21:43;22.20;99.90
23609;DHT22;11982;50.810;4.442;2023-07-22T11:24:09;22.60;99.90
23609;DHT22;11982;50.810;4.442;2023-07-22T11:26:35;22.40;99.90
23609;DHT22;11982;50.810;4.442;2023-07-22T11:29:02;22.20;99.90
23609;DHT22;11982;50.810;4.442;2023-07-22T11:31:32;22.30;99.90
23609;DHT22;11982;50.810;4.442;2023-07-22T11:33:58;22.20;99.90
23609;DHT22;11982;50.810;4.442;2023-07-22T11:36:24;22.00;99.90
23609;DHT22;11982;50.810;4.442;2023-07-22T11:38:49;21.80;99.90
23609;DHT22;11982;50.810;4.442;2023-07-22T11:41:15;21.80;99.90
23609;DHT22;11982;50.810;4.442;2023-07-22T11:43:41;21.80;99.90
23609;DHT22;11982;50.810;4.442;2023-07-22T11:46:07;21.90;99.90
23609;DHT22;11982;50.810;4.442;2023-07-22T11:48:32;21.80;99.90
23609;DHT22;11982;50.810;4.442;2023-07-22T11:50:59;21.40;99.90
23609;DHT22;11982;50.810;4.442;2023-07-22T11:53:28;21.40;99.90
23609;DHT22;11982;50.810;4.442;2023-07-22T11:55:58;22.00;99.90
23609;DHT22;11982;50.810;4.442;2023-07-22T11:58:26;22.10;99.90
23609;DHT22;11982;50.810;4.442;2023-07-22T12:01:05;21.50;99.90
23609;DHT22;11982;50.810;4.442;2023-07-22T12:03:33;21.40;99.90
23609;DHT22;11982;50.810;4.442;2023-07-22T12:06:08;21.50;99.90
23609;DHT22;11982;50.810;4.442;2023-07-22T12:08:34;21.40;99.90
23609;DHT22;11982;50.810;4.442;2023-07-22T12:11:01;21.30;99.90
23609;DHT22;11982;50.810;4.442;2023-07-22T12:13:27;21.50;99.90
23609;DHT22;11982;50.810;4.442;2023-07-22T12:16:04;22.10;99.90
23609;DHT22;11982;50.810;4.442;2023-07-22T12:18:46;22.10;99.90
23609;DHT22;11982;50.810;4.442;2023-07-22T12:21:13;22.30;99.90
23609;DHT22;11982;50.810;4.442;2023-07-22T12:23:40;22.40;99.90
23609;DHT22;11982;50.810;4.442;2023-07-22T12:26:06;22.60;99.90
23609;DHT22;11982;50.810;4.442;2023-07-22T12:28:32;22.90;99.90
23609;DHT22;11982;50.810;4.442;2023-07-22T12:30:57;23.00;99.90
23609;DHT22;11982;50.810;4.442;2023-07-22T12:33:24;23.30;99.90
23609;DHT22;11982;50.810;4.442;2023-07-22T12:35:50;23.50;99.90
23609;DHT22;11982;50.810;4.442;2023-07-22T12:38:16;23.50;99.90
23609;DHT22;11982;50.810;4.442;2023-07-22T12:40:42;23.40;99.90
23609;DHT22;11982;50.810;4.442;2023-07-22T12:43:07;23.40;99.90
23609;DHT22;11982;50.810;4.442;2023-07-22T12:45:33;23.60;99.90
23609;DHT22;11982;50.810;4.442;2023-07-22T12:47:59;23.10;99.90
23609;DHT22;11982;50.810;4.442;2023-07-22T12:50:25;22.30;99.90
23609;DHT22;11982;50.810;4.442;2023-07-22T12:52:50;22.10;99.90
23609;DHT22;11982;50.810;4.442;2023-07-22T12:55:16;22.50;99.90
23609;DHT22;11982;50.810;4.442;2023-07-22T12:57:42;22.60;99.90
23609;DHT22;11982;50.810;4.442;2023-07-22T13:00:08;22.60;99.90
23609;DHT22;11982;50.810;4.442;2023-07-22T13:02:37;22.90;99.90
23609;DHT22;11982;50.810;4.442;2023-07-22T13:05:03;23.30;99.90
23609;DHT22;11982;50.810;4.442;2023-07-22T13:07:30;23.40;99.90
23609;DHT22;11982;50.810;4.442;2023-07-22T13:09:55;23.40;99.90
23609;DHT22;11982;50.810;4.442;2023-07-22T13:12:23;23.20;99.90
23609;DHT22;11982;50.810;4.442;2023-07-22T13:14:48;23.10;99.90
23609;DHT22;11982;50.810;4.442;2023-07-22T13:17:14;23.10;99.90
23609;DHT22;11982;50.810;4.442;2023-07-22T13:19:40;23.00;99.90
23609;DHT22;11982;50.810;4.442;2023-07-22T13:22:05;22.90;99.90
23609;DHT22;11982;50.810;4.442;2023-07-22T13:24:31;22.70;99.90
23609;DHT22;11982;50.810;4.442;2023-07-22T13:26:57;22.50;99.90
23609;DHT22;11982;50.810;4.442;2023-07-22T13:29:22;22.70;99.90
23609;DHT22;11982;50.810;4.442;2023-07-22T13:31:48;22.60;99.90
23609;DHT22;11982;50.810;4.442;2023-07-22T13:34:13;22.60;99.90
23609;DHT22;11982;50.810;4.442;2023-07-22T13:36:41;23.00;99.90
23609;DHT22;11982;50.810;4.442;2023-07-22T13:39:07;23.20;99.90
23609;DHT22;11982;50.810;4.442;2023-07-22T13:41:33;23.20;99.90
23609;DHT22;11982;50.810;4.442;2023-07-22T13:43:58;23.50;99.90
23609;DHT22;11982;50.810;4.442;2023-07-22T13:46:24;23.60;99.90
23609;DHT22;11982;50.810;4.442;2023-07-22T13:48:50;23.70;99.90
23609;DHT22;11982;50.810;4.442;2023-07-22T13:51:15;23.30;99.90
23609;DHT22;11982;50.810;4.442;2023-07-22T13:53:41;22.90;99.90
23609;DHT22;11982;50.810;4.442;2023-07-22T13:56:07;22.40;99.90
23609;DHT22;11982;50.810;4.442;2023-07-22T13:58:32;22.00;99.90
23609;DHT22;11982;50.810;4.442;2023-07-22T14:00:58;21.70;99.90
23609;DHT22;11982;50.810;4.442;2023-07-22T14:03:24;21.40;99.90
23609;DHT22;11982;50.810;4.442;2023-07-22T14:05:49;21.20;99.90
23609;DHT22;11982;50.810;4.442;2023-07-22T14:08:15;21.10;99.90
23609;DHT22;11982;50.810;4.442;2023-07-22T14:10:41;20.90;99.90
23609;DHT22;11982;50.810;4.442;2023-07-22T14:13:06;20.70;99.90
23609;DHT22;11982;50.810;4.442;2023-07-22T14:15:32;20.60;99.90
23609;DHT22;11982;50.810;4.442;2023-07-22T14:17:58;20.50;99.90
23609;DHT22;11982;50.810;4.442;2023-07-22T14:20:23;20.50;99.90
23609;DHT22;11982;50.810;4.442;2023-07-22T14:22:49;20.40;99.90
23609;DHT22;11982;50.810;4.442;2023-07-22T14:25:16;20.50;99.90
23609;DHT22;11982;50.810;4.442;2023-07-22T14:27:41;20.60;99.90
23609;DHT22;11982;50.810;4.442;2023-07-22T14:30:08;20.60;99.90
23609;DHT22;11982;50.810;4.442;2023-07-22T14:32:34;20.50;99.90
23609;DHT22;11982;50.810;4.442;2023-07-22T14:35:00;20.80;99.90
23609;DHT22;11982;50.810;4.442;2023-07-22T14:37:25;21.10;99.90
23609;DHT22;11982;50.810;4.442;2023-07-22T14:39:51;21.30;99.90
23609;DHT22;11982;50.810;4.442;2023-07-22T14:42:17;21.40;99.90
23609;DHT22;11982;50.810;4.442;2023-07-22T14:44:42;21.60;99.90
23609;DHT22;11982;50.810;4.442;2023-07-22T14:47:08;22.00;99.90
23609;DHT22;11982;50.810;4.442;2023-07-22T14:49:34;22.20;99.90
23609;DHT22;11982;50.810;4.442;2023-07-22T14:52:00;22.20;99.90
23609;DHT22;11982;50.810;4.442;2023-07-22T14:54:25;22.40;99.90
23609;DHT22;11982;50.810;4.442;2023-07-22T14:56:51;22.70;99.90
23609;DHT22;11982;50.810;4.442;2023-07-22T14:59:17;22.70;99.90
23609;DHT22;11982;50.810;4.442;2023-07-22T15:01:42;22.90;99.90
23609;DHT22;11982;50.810;4.442;2023-07-22T15:04:08;23.00;99.90
23609;DHT22;11982;50.810;4.442;2023-07-22T15:06:34;23.20;99.90
23609;DHT22;11982;50.810;4.442;2023-07-22T15:09:03;23.50;99.90
23609;DHT22;11982;50.810;4.442;2023-07-22T15:11:36;23.20;99.90
23609;DHT22;11982;50.810;4.442;2023-07-22T15:14:05;23.40;99.90
23609;DHT22;11982;50.810;4.442;2023-07-22T15:16:31;23.30;99.90
23609;DHT22;11982;50.810;4.442;2023-07-22T15:18:58;23.50;99.90
23609;DHT22;11982;50.810;4.442;2023-07-22T15:21:23;23.30;99.90
23609;DHT22;11982;50.810;4.442;2023-07-22T15:23:49;22.90;99.90
23609;DHT22;11982;50.810;4.442;2023-07-22T15:26:15;22.50;99.90
23609;DHT22;11982;50.810;4.442;2023-07-22T15:28:40;22.20;99.90
23609;DHT22;11982;50.810;4.442;2023-07-22T15:31:07;22.00;99.90
23609;DHT22;11982;50.810;4.442;2023-07-22T15:33:34;22.10;99.90
23609;DHT22;11982;50.810;4.442;2023-07-22T15:36:01;22.10;99.90
23609;DHT22;11982;50.810;4.442;2023-07-22T15:38:27;22.00;99.90
23609;DHT22;11982;50.810;4.442;2023-07-22T15:40:53;22.10;99.90
23609;DHT22;11982;50.810;4.442;2023-07-22T15:43:19;21.90;99.90
23609;DHT22;11982;50.810;4.442;2023-07-22T15:45:45;21.70;99.90